Airfield :
LOGIN :

Register | Disclaimer

   EN    FR    IT 

 










Legend :    VFR   Marginal VFR   IFR   Intensive IFR   Very Intensive IFR
Visi :
Ceiling :
>= 8 km
>= 3000ft
5 to 8 km
1000 to 3000 ft
1500m to 5 km
500 to 1000 ft
800 to 1500m
200 to 500 ft
< 800m
< 200 ft
Symbols :   Thunderstorms  Fog  Heavy snow  Heavy precipitations  Wind > 20 kt
SIGMETs :     Misc.  Thunderstorms  Icing  Turbulence  Mountain Waves  Volcanic Ashes







- Airport Elevation : 172 ft
- IATA code : ODS


UKOO - Odesa

CURRENT METAR :
  • 190300Z 02003MPS 330V060 CAVOK 23/19 Q1013 R34/090060 NOSIG

EXPIRED METARs :
  • 190230Z 01002MPS CAVOK 22/19 Q1013 R34/090060 NOSIG
  • 190200Z 01003MPS CAVOK 22/18 Q1013 R34/090060 NOSIG
  • 190130Z 01003MPS CAVOK 22/18 Q1013 R34/090060 NOSIG
  • 190100Z 01003MPS CAVOK 22/17 Q1013 R34/090060 NOSIG
  • 190030Z 01002MPS CAVOK 22/16 Q1013 R16/090060 NOSIG

TAF TAF UKOO
Valid from the 19 at 00:00 until the 20 at 00:00 UTC


182305Z 1900/1924 04003MPS 6000 SCT010 SCT020CB TX31/1912Z TN20/1902Z
PROB40
TEMPO 1900/1906 -TSRA
PROB40
TEMPO 1906/1918 VRB10G17MPS 1000 TSRAGR SQ BKN003 SCT015CB
No reported NOTAMs for that airfield.



MET'MAP, your aeronautical weather chart ! - Copyright ORBIFLY December 2007 - Disclaimer

ORBIFLY MET'MAP TEAM :

Programming & Development : Alexandra Zaïnal
Concept & Development : Baudouin d'Aumeries
Co-Development & Prog : Marc-Olivier Méhu
Technical & hardware support : Manuel Goepfert

Contact : metmap@orbifly.com




SOURCES & CREDITS :

   NOAA